sensor_id;sensor_type;location;lat;lon;timestamp;temperature;humidity
52030;DHT22;38043;53.224;6.580;2023-02-01T00:01:24;6.10;99.90
52030;DHT22;38043;53.224;6.580;2023-02-01T00:03:49;6.10;99.90
52030;DHT22;38043;53.224;6.580;2023-02-01T00:06:15;6.20;99.90
52030;DHT22;38043;53.224;6.580;2023-02-01T00:08:40;6.30;99.90
52030;DHT22;38043;53.224;6.580;2023-02-01T00:11:07;6.20;99.90
52030;DHT22;38043;53.224;6.580;2023-02-01T00:13:33;6.20;99.90
52030;DHT22;38043;53.224;6.580;2023-02-01T00:16:13;6.10;99.90
52030;DHT22;38043;53.224;6.580;2023-02-01T00:18:41;6.10;99.90
52030;DHT22;38043;53.224;6.580;2023-02-01T00:21:07;6.10;99.90
52030;DHT22;38043;53.224;6.580;2023-02-01T00:23:33;6.10;99.90
52030;DHT22;38043;53.224;6.580;2023-02-01T00:26:03;6.10;99.90
52030;DHT22;38043;53.224;6.580;2023-02-01T00:28:28;6.10;99.90
52030;DHT22;38043;53.224;6.580;2023-02-01T00:30:58;6.10;99.90
52030;DHT22;38043;53.224;6.580;2023-02-01T00:33:23;6.10;99.90
52030;DHT22;38043;53.224;6.580;2023-02-01T00:35:49;6.10;99.90
52030;DHT22;38043;53.224;6.580;2023-02-01T00:38:14;6.20;99.90
52030;DHT22;38043;53.224;6.580;2023-02-01T00:40:40;6.10;99.90
52030;DHT22;38043;53.224;6.580;2023-02-01T00:43:05;6.20;99.90
52030;DHT22;38043;53.224;6.580;2023-02-01T00:45:31;6.20;99.90
52030;DHT22;38043;53.224;6.580;2023-02-01T00:47:56;6.20;99.90
52030;DHT22;38043;53.224;6.580;2023-02-01T00:50:22;6.20;99.90
52030;DHT22;38043;53.224;6.580;2023-02-01T00:52:47;6.30;99.90
52030;DHT22;38043;53.224;6.580;2023-02-01T00:55:13;6.20;99.90
52030;DHT22;38043;53.224;6.580;2023-02-01T00:57:38;6.30;99.90
52030;DHT22;38043;53.224;6.580;2023-02-01T01:00:04;6.30;99.90
52030;DHT22;38043;53.224;6.580;2023-02-01T01:02:30;6.20;99.90
52030;DHT22;38043;53.224;6.580;2023-02-01T01:04:55;6.30;99.90
52030;DHT22;38043;53.224;6.580;2023-02-01T01:07:21;6.30;99.90
52030;DHT22;38043;53.224;6.580;2023-02-01T01:09:46;6.30;99.90
52030;DHT22;38043;53.224;6.580;2023-02-01T01:12:12;6.30;99.90
52030;DHT22;38043;53.224;6.580;2023-02-01T01:14:37;6.30;99.90
52030;DHT22;38043;53.224;6.580;2023-02-01T01:17:03;6.30;99.90
52030;DHT22;38043;53.224;6.580;2023-02-01T01:19:28;6.30;99.90
52030;DHT22;38043;53.224;6.580;2023-02-01T01:21:54;6.30;99.90
52030;DHT22;38043;53.224;6.580;2023-02-01T01:24:19;6.30;99.90
52030;DHT22;38043;53.224;6.580;2023-02-01T01:26:45;6.30;99.90
52030;DHT22;38043;53.224;6.580;2023-02-01T01:29:11;6.30;99.90
52030;DHT22;38043;53.224;6.580;2023-02-01T01:31:36;6.30;99.90
52030;DHT22;38043;53.224;6.580;2023-02-01T01:34:02;6.30;99.90
52030;DHT22;38043;53.224;6.580;2023-02-01T01:36:28;6.30;99.90
52030;DHT22;38043;53.224;6.580;2023-02-01T01:38:53;6.30;99.90
52030;DHT22;38043;53.224;6.580;2023-02-01T01:41:20;6.30;99.90
52030;DHT22;38043;53.224;6.580;2023-02-01T01:43:47;6.40;99.90
52030;DHT22;38043;53.224;6.580;2023-02-01T01:46:16;6.30;99.90
52030;DHT22;38043;53.224;6.580;2023-02-01T01:48:42;6.30;99.90
52030;DHT22;38043;53.224;6.580;2023-02-01T01:51:08;6.30;99.90
52030;DHT22;38043;53.224;6.580;2023-02-01T01:53:37;6.30;99.90
52030;DHT22;38043;53.224;6.580;2023-02-01T01:56:03;6.30;99.90
52030;DHT22;38043;53.224;6.580;2023-02-01T01:58:29;6.20;99.90
52030;DHT22;38043;53.224;6.580;2023-02-01T02:00:57;6.10;99.90
52030;DHT22;38043;53.224;6.580;2023-02-01T02:03:27;6.10;99.90
52030;DHT22;38043;53.224;6.580;2023-02-01T02:05:55;6.00;99.90
52030;DHT22;38043;53.224;6.580;2023-02-01T02:08:22;6.00;99.90
52030;DHT22;38043;53.224;6.580;2023-02-01T02:10:48;6.00;99.90
52030;DHT22;38043;53.224;6.580;2023-02-01T02:13:28;5.90;99.90
52030;DHT22;38043;53.224;6.580;2023-02-01T02:16:04;5.90;99.90
52030;DHT22;38043;53.224;6.580;2023-02-01T02:18:38;5.90;99.90
52030;DHT22;38043;53.224;6.580;2023-02-01T02:21:12;5.80;99.90
52030;DHT22;38043;53.224;6.580;2023-02-01T02:23:53;5.80;99.90
52030;DHT22;38043;53.224;6.580;2023-02-01T02:26:44;5.80;99.90
52030;DHT22;38043;53.224;6.580;2023-02-01T02:34:37;5.70;99.90
52030;DHT22;38043;53.224;6.580;2023-02-01T02:37:07;5.80;99.90
52030;DHT22;38043;53.224;6.580;2023-02-01T02:39:41;5.70;99.90
52030;DHT22;38043;53.224;6.580;2023-02-01T02:42:14;5.70;99.90
52030;DHT22;38043;53.224;6.580;2023-02-01T02:53:21;5.80;99.90
52030;DHT22;38043;53.224;6.580;2023-02-01T02:56:07;5.80;99.90
52030;DHT22;38043;53.224;6.580;2023-02-01T02:58:53;5.80;99.90
52030;DHT22;38043;53.224;6.580;2023-02-01T03:01:38;5.80;99.90
52030;DHT22;38043;53.224;6.580;2023-02-01T03:04:23;5.80;99.90
52030;DHT22;38043;53.224;6.580;2023-02-01T03:06:51;5.90;99.90
52030;DHT22;38043;53.224;6.580;2023-02-01T03:09:26;5.90;99.90
52030;DHT22;38043;53.224;6.580;2023-02-01T03:11:56;5.90;99.90
52030;DHT22;38043;53.224;6.580;2023-02-01T03:14:43;5.90;99.90
52030;DHT22;38043;53.224;6.580;2023-02-01T03:17:11;5.90;99.90
52030;DHT22;38043;53.224;6.580;2023-02-01T03:19:40;5.90;99.90
52030;DHT22;38043;53.224;6.580;2023-02-01T03:22:10;5.90;99.90
52030;DHT22;38043;53.224;6.580;2023-02-01T03:27:13;6.00;99.90
52030;DHT22;38043;53.224;6.580;2023-02-01T03:29:43;6.00;99.90
52030;DHT22;38043;53.224;6.580;2023-02-01T03:32:09;6.10;99.90
52030;DHT22;38043;53.224;6.580;2023-02-01T03:34:35;6.10;99.90
52030;DHT22;38043;53.224;6.580;2023-02-01T03:37:04;6.10;99.90
52030;DHT22;38043;53.224;6.580;2023-02-01T03:42:00;6.10;99.90
52030;DHT22;38043;53.224;6.580;2023-02-01T03:44:32;6.10;99.90
52030;DHT22;38043;53.224;6.580;2023-02-01T03:52:00;6.10;99.90
52030;DHT22;38043;53.224;6.580;2023-02-01T03:54:29;6.10;99.90
52030;DHT22;38043;53.224;6.580;2023-02-01T03:56:56;6.10;99.90
52030;DHT22;38043;53.224;6.580;2023-02-01T03:59:23;6.10;99.90
52030;DHT22;38043;53.224;6.580;2023-02-01T04:01:49;6.10;99.90
52030;DHT22;38043;53.224;6.580;2023-02-01T04:04:14;6.10;99.90
52030;DHT22;38043;53.224;6.580;2023-02-01T04:06:45;6.00;99.90
52030;DHT22;38043;53.224;6.580;2023-02-01T04:09:11;6.00;99.90
52030;DHT22;38043;53.224;6.580;2023-02-01T04:11:36;5.90;99.90
52030;DHT22;38043;53.224;6.580;2023-02-01T04:14:02;6.00;99.90
52030;DHT22;38043;53.224;6.580;2023-02-01T04:16:30;5.90;99.90
52030;DHT22;38043;53.224;6.580;2023-02-01T04:18:56;6.00;99.90
52030;DHT22;38043;53.224;6.580;2023-02-01T04:21:22;6.00;99.90
52030;DHT22;38043;53.224;6.580;2023-02-01T04:23:48;6.00;99.90
52030;DHT22;38043;53.224;6.580;2023-02-01T04:26:13;6.00;99.90
52030;DHT22;38043;53.224;6.580;2023-02-01T04:28:41;6.10;99.90
52030;DHT22;38043;53.224;6.580;2023-02-01T04:31:07;6.10;99.90
52030;DHT22;38043;53.224;6.580;2023-02-01T04:33:32;6.10;99.90
52030;DHT22;38043;53.224;6.580;2023-02-01T04:35:58;6.10;99.90
52030;DHT22;38043;53.224;6.580;2023-02-01T04:38:23;6.10;99.90
52030;DHT22;38043;53.224;6.580;2023-02-01T04:40:49;6.10;99.90
52030;DHT22;38043;53.224;6.580;2023-02-01T04:43:15;6.10;99.90
52030;DHT22;38043;53.224;6.580;2023-02-01T04:45:40;6.20;99.90
52030;DHT22;38043;53.224;6.580;2023-02-01T04:48:06;6.10;99.90
52030;DHT22;38043;53.224;6.580;2023-02-01T04:50:31;6.00;99.90
52030;DHT22;38043;53.224;6.580;2023-02-01T04:52:57;6.00;99.90
52030;DHT22;38043;53.224;6.580;2023-02-01T04:55:22;6.00;99.90
52030;DHT22;38043;53.224;6.580;2023-02-01T04:57:48;6.00;99.90
52030;DHT22;38043;53.224;6.580;2023-02-01T05:00:13;6.00;99.90
52030;DHT22;38043;53.224;6.580;2023-02-01T05:02:39;6.00;99.90
52030;DHT22;38043;53.224;6.580;2023-02-01T05:05:05;5.90;99.90
52030;DHT22;38043;53.224;6.580;2023-02-01T05:07:30;5.90;99.90
52030;DHT22;38043;53.224;6.580;2023-02-01T05:09:56;5.80;99.90
52030;DHT22;38043;53.224;6.580;2023-02-01T05:12:21;5.90;99.90
52030;DHT22;38043;53.224;6.580;2023-02-01T05:15:05;6.00;99.90
52030;DHT22;38043;53.224;6.580;2023-02-01T05:17:31;6.00;99.90
52030;DHT22;38043;53.224;6.580;2023-02-01T05:19:57;5.90;99.90
52030;DHT22;38043;53.224;6.580;2023-02-01T05:22:22;5.90;99.90
52030;DHT22;38043;53.224;6.580;2023-02-01T05:24:48;5.90;99.90
52030;DHT22;38043;53.224;6.580;2023-02-01T05:27:13;5.90;99.90
52030;DHT22;38043;53.224;6.580;2023-02-01T05:29:39;5.90;99.90
52030;DHT22;38043;53.224;6.580;2023-02-01T05:32:09;6.00;99.90
52030;DHT22;38043;53.224;6.580;2023-02-01T05:34:34;6.00;99.90
52030;DHT22;38043;53.224;6.580;2023-02-01T05:37:00;6.00;99.90
52030;DHT22;38043;53.224;6.580;2023-02-01T05:39:25;6.00;99.90
52030;DHT22;38043;53.224;6.580;2023-02-01T05:41:51;6.10;99.90
52030;DHT22;38043;53.224;6.580;2023-02-01T05:44:16;6.30;99.90
52030;DHT22;38043;53.224;6.580;2023-02-01T05:46:42;6.10;99.90
52030;DHT22;38043;53.224;6.580;2023-02-01T05:49:07;6.10;99.90
52030;DHT22;38043;53.224;6.580;2023-02-01T05:51:33;6.20;99.90
52030;DHT22;38043;53.224;6.580;2023-02-01T05:53:59;6.20;99.90
52030;DHT22;38043;53.224;6.580;2023-02-01T05:56:24;6.10;99.90
52030;DHT22;38043;53.224;6.580;2023-02-01T05:58:50;6.20;99.90
52030;DHT22;38043;53.224;6.580;2023-02-01T06:01:15;6.20;99.90
52030;DHT22;38043;53.224;6.580;2023-02-01T06:03:41;6.20;99.90
52030;DHT22;38043;53.224;6.580;2023-02-01T06:06:06;6.20;99.90
52030;DHT22;38043;53.224;6.580;2023-02-01T06:08:32;6.10;99.90
52030;DHT22;38043;53.224;6.580;2023-02-01T06:10:58;6.10;99.90
52030;DHT22;38043;53.224;6.580;2023-02-01T06:13:24;6.20;99.90
52030;DHT22;38043;53.224;6.580;2023-02-01T06:15:49;6.00;99.90
52030;DHT22;38043;53.224;6.580;2023-02-01T06:18:15;6.00;99.90
52030;DHT22;38043;53.224;6.580;2023-02-01T06:20:41;6.10;99.90
52030;DHT22;38043;53.224;6.580;2023-02-01T06:23:06;6.00;99.90
52030;DHT22;38043;53.224;6.580;2023-02-01T06:25:32;6.00;99.90
52030;DHT22;38043;53.224;6.580;2023-02-01T06:27:59;6.00;99.90
52030;DHT22;38043;53.224;6.580;2023-02-01T06:30:25;5.90;99.90
52030;DHT22;38043;53.224;6.580;2023-02-01T06:32:52;5.90;99.90
52030;DHT22;38043;53.224;6.580;2023-02-01T06:35:21;6.00;99.90
52030;DHT22;38043;53.224;6.580;2023-02-01T06:37:47;6.00;99.90
52030;DHT22;38043;53.224;6.580;2023-02-01T06:40:12;6.10;99.90
52030;DHT22;38043;53.224;6.580;2023-02-01T06:42:38;6.10;99.90
52030;DHT22;38043;53.224;6.580;2023-02-01T06:45:04;6.10;99.90
52030;DHT22;38043;53.224;6.580;2023-02-01T06:47:29;6.10;99.90
52030;DHT22;38043;53.224;6.580;2023-02-01T06:49:55;6.20;99.90
52030;DHT22;38043;53.224;6.580;2023-02-01T06:52:20;6.20;99.90
52030;DHT22;38043;53.224;6.580;2023-02-01T06:54:46;6.10;99.90
52030;DHT22;38043;53.224;6.580;2023-02-01T06:57:11;6.20;99.90
52030;DHT22;38043;53.224;6.580;2023-02-01T06:59:37;6.20;99.90
52030;DHT22;38043;53.224;6.580;2023-02-01T07:02:02;6.30;99.90
52030;DHT22;38043;53.224;6.580;2023-02-01T07:04:28;6.20;99.90
52030;DHT22;38043;53.224;6.580;2023-02-01T07:06:53;6.40;99.90
52030;DHT22;38043;53.224;6.580;2023-02-01T07:09:19;6.30;99.90
52030;DHT22;38043;53.224;6.580;2023-02-01T07:11:44;6.30;99.90
52030;DHT22;38043;53.224;6.580;2023-02-01T07:14:10;6.30;99.90
52030;DHT22;38043;53.224;6.580;2023-02-01T07:16:36;6.20;99.90
52030;DHT22;38043;53.224;6.580;2023-02-01T07:19:02;6.30;99.90
52030;DHT22;38043;53.224;6.580;2023-02-01T07:21:27;6.20;99.90
52030;DHT22;38043;53.224;6.580;2023-02-01T07:23:53;6.40;99.90
52030;DHT22;38043;53.224;6.580;2023-02-01T07:26:19;6.30;99.90
52030;DHT22;38043;53.224;6.580;2023-02-01T07:28:44;6.30;99.90
52030;DHT22;38043;53.224;6.580;2023-02-01T07:31:11;6.30;99.90
52030;DHT22;38043;53.224;6.580;2023-02-01T07:33:38;6.30;99.90
52030;DHT22;38043;53.224;6.580;2023-02-01T07:36:05;6.20;99.90
52030;DHT22;38043;53.224;6.580;2023-02-01T07:38:31;6.30;99.90
52030;DHT22;38043;53.224;6.580;2023-02-01T07:41:03;6.20;99.90
52030;DHT22;38043;53.224;6.580;2023-02-01T07:43:29;6.20;99.90
52030;DHT22;38043;53.224;6.580;2023-02-01T07:45:55;6.30;99.90
52030;DHT22;38043;53.224;6.580;2023-02-01T07:48:21;6.30;99.90
52030;DHT22;38043;53.224;6.580;2023-02-01T07:50:47;6.30;99.90
52030;DHT22;38043;53.224;6.580;2023-02-01T07:53:13;6.30;99.90
52030;DHT22;38043;53.224;6.580;2023-02-01T07:55:39;6.30;99.90
52030;DHT22;38043;53.224;6.580;2023-02-01T07:58:04;6.30;99.90
52030;DHT22;38043;53.224;6.580;2023-02-01T08:00:30;6.30;99.90
52030;DHT22;38043;53.224;6.580;2023-02-01T08:03:14;6.30;99.90
52030;DHT22;38043;53.224;6.580;2023-02-01T08:05:40;6.30;99.90
52030;DHT22;38043;53.224;6.580;2023-02-01T08:08:06;6.40;99.90
52030;DHT22;38043;53.224;6.580;2023-02-01T08:10:32;6.50;99.90
52030;DHT22;38043;53.224;6.580;2023-02-01T08:12:58;6.40;99.90
52030;DHT22;38043;53.224;6.580;2023-02-01T08:15:24;6.60;99.90
52030;DHT22;38043;53.224;6.580;2023-02-01T08:17:50;6.40;99.90
52030;DHT22;38043;53.224;6.580;2023-02-01T08:20:16;6.40;99.90
52030;DHT22;38043;53.224;6.580;2023-02-01T08:22:42;6.40;99.90
52030;DHT22;38043;53.224;6.580;2023-02-01T08:25:08;6.40;99.90
52030;DHT22;38043;53.224;6.580;2023-02-01T08:27:34;6.40;99.90
52030;DHT22;38043;53.224;6.580;2023-02-01T08:29:59;6.40;99.90
52030;DHT22;38043;53.224;6.580;2023-02-01T08:32:25;6.40;99.90
52030;DHT22;38043;53.224;6.580;2023-02-01T08:34:51;6.40;99.90
52030;DHT22;38043;53.224;6.580;2023-02-01T08:37:16;6.50;99.90
52030;DHT22;38043;53.224;6.580;2023-02-01T08:39:42;6.60;99.90
52030;DHT22;38043;53.224;6.580;2023-02-01T08:42:11;6.60;99.90
52030;DHT22;38043;53.224;6.580;2023-02-01T08:44:55;6.60;99.90
52030;DHT22;38043;53.224;6.580;2023-02-01T08:47:21;6.50;99.90
52030;DHT22;38043;53.224;6.580;2023-02-01T08:49:46;7.00;99.90
52030;DHT22;38043;53.224;6.580;2023-02-01T08:52:12;6.50;99.90
52030;DHT22;38043;53.224;6.580;2023-02-01T08:54:37;6.50;99.90
52030;DHT22;38043;53.224;6.580;2023-02-01T08:57:05;6.60;99.90
52030;DHT22;38043;53.224;6.580;2023-02-01T08:59:30;6.60;99.90
52030;DHT22;38043;53.224;6.580;2023-02-01T09:01:56;6.60;99.90
52030;DHT22;38043;53.224;6.580;2023-02-01T09:04:21;6.60;99.90
52030;DHT22;38043;53.224;6.580;2023-02-01T09:06:47;6.50;99.90
52030;DHT22;38043;53.224;6.580;2023-02-01T09:09:13;6.50;99.90
52030;DHT22;38043;53.224;6.580;2023-02-01T09:11:38;6.50;99.90
52030;DHT22;38043;53.224;6.580;2023-02-01T09:14:04;6.50;99.90
52030;DHT22;38043;53.224;6.580;2023-02-01T09:16:29;6.50;99.90
52030;DHT22;38043;53.224;6.580;2023-02-01T09:18:55;6.60;99.90
52030;DHT22;38043;53.224;6.580;2023-02-01T09:21:20;6.60;99.90
52030;DHT22;38043;53.224;6.580;2023-02-01T09:23:46;6.50;99.90
52030;DHT22;38043;53.224;6.580;2023-02-01T09:26:13;6.60;99.90
52030;DHT22;38043;53.224;6.580;2023-02-01T09:28:39;6.50;99.90
52030;DHT22;38043;53.224;6.580;2023-02-01T09:31:05;6.60;99.90
52030;DHT22;38043;53.224;6.580;2023-02-01T09:33:30;6.60;99.90
52030;DHT22;38043;53.224;6.580;2023-02-01T09:35:57;6.60;99.90
52030;DHT22;38043;53.224;6.580;2023-02-01T09:38:23;6.60;99.90
52030;DHT22;38043;53.224;6.580;2023-02-01T09:40:50;6.60;99.90
52030;DHT22;38043;53.224;6.580;2023-02-01T09:45:52;6.60;99.90
52030;DHT22;38043;53.224;6.580;2023-02-01T09:48:32;6.60;99.90
52030;DHT22;38043;53.224;6.580;2023-02-01T09:51:02;6.60;99.90
52030;DHT22;38043;53.224;6.580;2023-02-01T09:55:55;6.50;99.90
52030;DHT22;38043;53.224;6.580;2023-02-01T09:58:22;6.50;99.90
52030;DHT22;38043;53.224;6.580;2023-02-01T10:00:54;6.50;99.90
52030;DHT22;38043;53.224;6.580;2023-02-01T10:03:20;6.50;99.90
52030;DHT22;38043;53.224;6.580;2023-02-01T10:06:02;6.50;99.90
52030;DHT22;38043;53.224;6.580;2023-02-01T10:08:36;6.40;99.90
52030;DHT22;38043;53.224;6.580;2023-02-01T10:11:07;6.40;99.90
52030;DHT22;38043;53.224;6.580;2023-02-01T10:13:44;6.30;99.90
52030;DHT22;38043;53.224;6.580;2023-02-01T10:16:17;6.30;99.90
52030;DHT22;38043;53.224;6.580;2023-02-01T10:19:00;6.30;99.90
52030;DHT22;38043;53.224;6.580;2023-02-01T10:26:32;6.10;99.90
52030;DHT22;38043;53.224;6.580;2023-02-01T10:28:59;6.10;99.90
52030;DHT22;38043;53.224;6.580;2023-02-01T10:31:26;6.20;99.90
52030;DHT22;38043;53.224;6.580;2023-02-01T10:34:00;6.20;99.90
52030;DHT22;38043;53.224;6.580;2023-02-01T10:36:34;6.20;99.90
52030;DHT22;38043;53.224;6.580;2023-02-01T10:39:02;6.20;99.90
52030;DHT22;38043;53.224;6.580;2023-02-01T10:41:30;6.20;99.90
52030;DHT22;38043;53.224;6.580;2023-02-01T10:43:57;6.20;99.90
52030;DHT22;38043;53.224;6.580;2023-02-01T10:46:23;6.30;99.90
52030;DHT22;38043;53.224;6.580;2023-02-01T10:48:49;6.30;99.90
52030;DHT22;38043;53.224;6.580;2023-02-01T10:51:26;6.40;99.90
52030;DHT22;38043;53.224;6.580;2023-02-01T10:53:56;6.50;99.90
52030;DHT22;38043;53.224;6.580;2023-02-01T10:56:23;6.60;99.90
52030;DHT22;38043;53.224;6.580;2023-02-01T10:58:49;6.70;99.90
52030;DHT22;38043;53.224;6.580;2023-02-01T11:01:18;6.70;99.90
52030;DHT22;38043;53.224;6.580;2023-02-01T11:03:46;6.80;99.90
52030;DHT22;38043;53.224;6.580;2023-02-01T11:08:46;7.00;99.90
52030;DHT22;38043;53.224;6.580;2023-02-01T11:11:13;6.90;99.90
52030;DHT22;38043;53.224;6.580;2023-02-01T11:13:38;6.80;99.90
52030;DHT22;38043;53.224;6.580;2023-02-01T11:16:04;6.80;99.90
52030;DHT22;38043;53.224;6.580;2023-02-01T11:18:31;6.60;99.90
52030;DHT22;38043;53.224;6.580;2023-02-01T11:20:57;6.50;99.90
52030;DHT22;38043;53.224;6.580;2023-02-01T11:23:24;6.30;99.90
52030;DHT22;38043;53.224;6.580;2023-02-01T11:25:51;6.30;99.90
52030;DHT22;38043;53.224;6.580;2023-02-01T11:28:18;6.30;99.90
52030;DHT22;38043;53.224;6.580;2023-02-01T11:30:45;6.50;99.90
52030;DHT22;38043;53.224;6.580;2023-02-01T11:33:13;6.20;99.90
52030;DHT22;38043;53.224;6.580;2023-02-01T11:35:40;6.10;99.90
52030;DHT22;38043;53.224;6.580;2023-02-01T11:38:20;6.10;99.90
52030;DHT22;38043;53.224;6.580;2023-02-01T11:40:46;5.90;99.90
52030;DHT22;38043;53.224;6.580;2023-02-01T11:43:18;5.40;99.90
52030;DHT22;38043;53.224;6.580;2023-02-01T11:45:57;5.10;99.90
52030;DHT22;38043;53.224;6.580;2023-02-01T11:48:24;4.80;99.90
52030;DHT22;38043;53.224;6.580;2023-02-01T11:54:02;4.40;99.90
52030;DHT22;38043;53.224;6.580;2023-02-01T11:56:23;4.40;99.90
52030;DHT22;38043;53.224;6.580;2023-02-01T11:59:10;4.20;99.90
52030;DHT22;38043;53.224;6.580;2023-02-01T12:06:51;4.00;99.90
52030;DHT22;38043;53.224;6.580;2023-02-01T12:11:46;4.10;99.90
52030;DHT22;38043;53.224;6.580;2023-02-01T12:19:22;4.60;99.90
52030;DHT22;38043;53.224;6.580;2023-02-01T12:21:54;4.70;99.90
52030;DHT22;38043;53.224;6.580;2023-02-01T12:26:53;4.70;99.90
52030;DHT22;38043;53.224;6.580;2023-02-01T12:36:46;5.50;99.90
52030;DHT22;38043;53.224;6.580;2023-02-01T12:46:55;6.70;99.90
52030;DHT22;38043;53.224;6.580;2023-02-01T12:49:31;6.90;99.90
52030;DHT22;38043;53.224;6.580;2023-02-01T12:52:01;7.00;99.90
52030;DHT22;38043;53.224;6.580;2023-02-01T12:54:50;7.10;99.90
52030;DHT22;38043;53.224;6.580;2023-02-01T12:57:26;7.10;99.90
52030;DHT22;38043;53.224;6.580;2023-02-01T13:07:49;7.20;99.90
52030;DHT22;38043;53.224;6.580;2023-02-01T13:12:49;7.20;99.90
52030;DHT22;38043;53.224;6.580;2023-02-01T13:17:41;7.30;99.90
52030;DHT22;38043;53.224;6.580;2023-02-01T13:22:34;7.40;99.90
52030;DHT22;38043;53.224;6.580;2023-02-01T13:27:53;7.50;99.90
52030;DHT22;38043;53.224;6.580;2023-02-01T13:30:22;7.60;99.90
52030;DHT22;38043;53.224;6.580;2023-02-01T13:40:22;7.60;99.90
52030;DHT22;38043;53.224;6.580;2023-02-01T13:42:52;7.60;99.90
52030;DHT22;38043;53.224;6.580;2023-02-01T13:45:20;7.60;99.90
52030;DHT22;38043;53.224;6.580;2023-02-01T13:47:47;7.60;99.90
52030;DHT22;38043;53.224;6.580;2023-02-01T13:55:38;7.60;99.90
52030;DHT22;38043;53.224;6.580;2023-02-01T14:00:34;7.50;99.90
52030;DHT22;38043;53.224;6.580;2023-02-01T14:23:46;7.50;99.90
52030;DHT22;38043;53.224;6.580;2023-02-01T14:26:14;7.50;99.90
52030;DHT22;38043;53.224;6.580;2023-02-01T14:28:41;7.50;99.90
52030;DHT22;38043;53.224;6.580;2023-02-01T14:31:15;7.50;99.90
52030;DHT22;38043;53.224;6.580;2023-02-01T14:33:41;7.40;99.90
52030;DHT22;38043;53.224;6.580;2023-02-01T14:36:09;7.50;99.90
52030;DHT22;38043;53.224;6.580;2023-02-01T14:38:36;7.50;99.90
52030;DHT22;38043;53.224;6.580;2023-02-01T14:43:50;7.40;99.90
52030;DHT22;38043;53.224;6.580;2023-02-01T14:46:16;7.40;99.90
52030;DHT22;38043;53.224;6.580;2023-02-01T14:48:42;7.40;99.90
52030;DHT22;38043;53.224;6.580;2023-02-01T14:51:09;7.50;99.90
52030;DHT22;38043;53.224;6.580;2023-02-01T14:53:36;7.50;99.90
52030;DHT22;38043;53.224;6.580;2023-02-01T15:01:27;7.40;99.90
52030;DHT22;38043;53.224;6.580;2023-02-01T15:03:57;7.30;99.90
52030;DHT22;38043;53.224;6.580;2023-02-01T15:08:52;7.20;99.90
52030;DHT22;38043;53.224;6.580;2023-02-01T15:11:17;7.20;99.90
52030;DHT22;38043;53.224;6.580;2023-02-01T15:13:50;7.10;99.90
52030;DHT22;38043;53.224;6.580;2023-02-01T15:16:17;7.10;99.90
52030;DHT22;38043;53.224;6.580;2023-02-01T15:18:42;7.10;99.90
52030;DHT22;38043;53.224;6.580;2023-02-01T15:21:15;7.20;99.90
52030;DHT22;38043;53.224;6.580;2023-02-01T15:23:41;7.10;99.90
52030;DHT22;38043;53.224;6.580;2023-02-01T15:26:07;7.10;99.90
52030;DHT22;38043;53.224;6.580;2023-02-01T15:28:33;7.20;99.90
52030;DHT22;38043;53.224;6.580;2023-02-01T15:31:02;7.20;99.90
52030;DHT22;38043;53.224;6.580;2023-02-01T15:33:28;7.20;99.90
52030;DHT22;38043;53.224;6.580;2023-02-01T15:36:07;7.30;99.90
52030;DHT22;38043;53.224;6.580;2023-02-01T15:38:36;7.30;99.90
52030;DHT22;38043;53.224;6.580;2023-02-01T15:41:04;7.30;99.90
52030;DHT22;38043;53.224;6.580;2023-02-01T15:43:31;7.20;99.90
52030;DHT22;38043;53.224;6.580;2023-02-01T15:45:58;7.30;99.90
52030;DHT22;38043;53.224;6.580;2023-02-01T15:48:25;7.10;99.90
52030;DHT22;38043;53.224;6.580;2023-02-01T15:50:52;7.10;99.90
52030;DHT22;38043;53.224;6.580;2023-02-01T15:53:22;7.10;99.90
52030;DHT22;38043;53.224;6.580;2023-02-01T15:55:52;7.10;99.90
52030;DHT22;38043;53.224;6.580;2023-02-01T15:58:20;7.00;99.90
52030;DHT22;38043;53.224;6.580;2023-02-01T16:00:47;7.40;99.90
52030;DHT22;38043;53.224;6.580;2023-02-01T16:03:27;6.90;99.90
52030;DHT22;38043;53.224;6.580;2023-02-01T16:05:57;6.80;99.90
52030;DHT22;38043;53.224;6.580;2023-02-01T16:08:24;6.80;99.90
52030;DHT22;38043;53.224;6.580;2023-02-01T16:10:51;6.80;99.90
52030;DHT22;38043;53.224;6.580;2023-02-01T16:13:17;6.80;99.90
52030;DHT22;38043;53.224;6.580;2023-02-01T16:15:43;6.70;99.90
52030;DHT22;38043;53.224;6.580;2023-02-01T16:18:09;6.70;99.90
52030;DHT22;38043;53.224;6.580;2023-02-01T16:20:36;6.60;99.90
52030;DHT22;38043;53.224;6.580;2023-02-01T16:23:02;6.60;99.90
52030;DHT22;38043;53.224;6.580;2023-02-01T16:25:28;6.50;99.90
52030;DHT22;38043;53.224;6.580;2023-02-01T16:27:53;6.60;99.90
52030;DHT22;38043;53.224;6.580;2023-02-01T16:30:19;6.70;99.90
52030;DHT22;38043;53.224;6.580;2023-02-01T16:32:54;6.50;99.90
52030;DHT22;38043;53.224;6.580;2023-02-01T16:37:48;6.50;99.90
52030;DHT22;38043;53.224;6.580;2023-02-01T16:40:14;6.60;99.90
52030;DHT22;38043;53.224;6.580;2023-02-01T16:42:40;6.60;99.90
52030;DHT22;38043;53.224;6.580;2023-02-01T16:45:06;6.50;99.90
52030;DHT22;38043;53.224;6.580;2023-02-01T16:47:32;6.50;99.90
52030;DHT22;38043;53.224;6.580;2023-02-01T16:49:59;6.40;99.90
52030;DHT22;38043;53.224;6.580;2023-02-01T16:52:25;6.40;99.90
52030;DHT22;38043;53.224;6.580;2023-02-01T16:54:51;6.30;99.90
52030;DHT22;38043;53.224;6.580;2023-02-01T16:57:18;6.30;99.90
52030;DHT22;38043;53.224;6.580;2023-02-01T16:59:44;6.40;99.90
52030;DHT22;38043;53.224;6.580;2023-02-01T17:02:11;6.30;99.90
52030;DHT22;38043;53.224;6.580;2023-02-01T17:04:37;6.20;99.90
52030;DHT22;38043;53.224;6.580;2023-02-01T17:07:02;6.20;99.90
52030;DHT22;38043;53.224;6.580;2023-02-01T17:09:35;6.20;99.90
52030;DHT22;38043;53.224;6.580;2023-02-01T17:12:01;6.10;99.90
52030;DHT22;38043;53.224;6.580;2023-02-01T17:14:26;6.10;99.90
52030;DHT22;38043;53.224;6.580;2023-02-01T17:16:52;6.10;99.90
52030;DHT22;38043;53.224;6.580;2023-02-01T17:19:19;6.10;99.90
52030;DHT22;38043;53.224;6.580;2023-02-01T17:21:52;6.10;99.90
52030;DHT22;38043;53.224;6.580;2023-02-01T17:24:20;6.20;99.90
52030;DHT22;38043;53.224;6.580;2023-02-01T17:26:46;6.20;99.90
52030;DHT22;38043;53.224;6.580;2023-02-01T17:29:12;6.20;99.90
52030;DHT22;38043;53.224;6.580;2023-02-01T17:31:38;6.20;99.90
52030;DHT22;38043;53.224;6.580;2023-02-01T17:34:06;6.30;99.90
52030;DHT22;38043;53.224;6.580;2023-02-01T17:36:31;6.20;99.90
52030;DHT22;38043;53.224;6.580;2023-02-01T17:38:57;6.20;99.90
52030;DHT22;38043;53.224;6.580;2023-02-01T17:41:23;6.20;99.90
52030;DHT22;38043;53.224;6.580;2023-02-01T17:43:49;6.20;99.90
52030;DHT22;38043;53.224;6.580;2023-02-01T17:46:16;6.20;99.90
52030;DHT22;38043;53.224;6.580;2023-02-01T17:48:50;6.20;99.90
52030;DHT22;38043;53.224;6.580;2023-02-01T17:51:17;6.10;99.90
52030;DHT22;38043;53.224;6.580;2023-02-01T17:53:42;6.10;99.90
52030;DHT22;38043;53.224;6.580;2023-02-01T17:56:12;6.10;99.90
52030;DHT22;38043;53.224;6.580;2023-02-01T17:58:38;6.10;99.90
52030;DHT22;38043;53.224;6.580;2023-02-01T18:01:03;6.20;99.90
52030;DHT22;38043;53.224;6.580;2023-02-01T18:03:30;6.10;99.90
52030;DHT22;38043;53.224;6.580;2023-02-01T18:05:57;6.10;99.90